sensor_id;sensor_type;location;lat;lon;timestamp;pressure;altitude;pressure_sealevel;temperature;humidity
71948;BME280;63257;55.082;38.772;2022-11-15T00:02:44;100534.00;;;-1.94;58.18
71948;BME280;63257;55.082;38.772;2022-11-15T00:06:00;100539.19;;;-1.89;58.20
71948;BME280;63257;55.082;38.772;2022-11-15T00:08:45;100535.69;;;-1.96;58.46
71948;BME280;63257;55.082;38.772;2022-11-15T00:16:13;100537.53;;;-1.82;58.23
71948;BME280;63257;55.082;38.772;2022-11-15T00:18:58;100529.78;;;-1.79;57.59
71948;BME280;63257;55.082;38.772;2022-11-15T00:30:11;100518.56;;;-1.81;57.91
71948;BME280;63257;55.082;38.772;2022-11-15T00:32:55;100511.63;;;-1.84;57.83
71948;BME280;63257;55.082;38.772;2022-11-15T00:35:39;100496.09;;;-1.85;57.79
71948;BME280;63257;55.082;38.772;2022-11-15T00:38:25;100494.34;;;-1.90;58.16
71948;BME280;63257;55.082;38.772;2022-11-15T00:41:09;100496.03;;;-1.93;58.05
71948;BME280;63257;55.082;38.772;2022-11-15T00:44:20;100496.03;;;-1.95;58.41
71948;BME280;63257;55.082;38.772;2022-11-15T00:47:04;100489.97;;;-1.97;58.26
71948;BME280;63257;55.082;38.772;2022-11-15T00:57:38;100488.28;;;-1.92;58.08
71948;BME280;63257;55.082;38.772;2022-11-15T01:00:23;100487.44;;;-1.86;57.36
71948;BME280;63257;55.082;38.772;2022-11-15T01:03:08;100475.41;;;-1.84;57.53
71948;BME280;63257;55.082;38.772;2022-11-15T01:05:53;100474.56;;;-1.77;57.31
71948;BME280;63257;55.082;38.772;2022-11-15T01:08:39;100478.91;;;-1.71;57.23
71948;BME280;63257;55.082;38.772;2022-11-15T01:14:58;100469.41;;;-1.72;57.18
71948;BME280;63257;55.082;38.772;2022-11-15T01:17:43;100484.09;;;-1.66;57.00
71948;BME280;63257;55.082;38.772;2022-11-15T01:20:28;100459.91;;;-1.76;57.29
71948;BME280;63257;55.082;38.772;2022-11-15T01:23:12;100482.41;;;-1.63;57.14
71948;BME280;63257;55.082;38.772;2022-11-15T01:26:00;100490.22;;;-1.57;56.71
71948;BME280;63257;55.082;38.772;2022-11-15T01:28:45;100477.25;;;-1.61;57.12
71948;BME280;63257;55.082;38.772;2022-11-15T01:31:29;100487.66;;;-1.52;57.03
71948;BME280;63257;55.082;38.772;2022-11-15T01:34:14;100467.72;;;-1.67;57.63
71948;BME280;63257;55.082;38.772;2022-11-15T01:36:59;100478.13;;;-1.59;57.27
71948;BME280;63257;55.082;38.772;2022-11-15T01:39:44;100476.41;;;-1.57;57.79
71948;BME280;63257;55.082;38.772;2022-11-15T01:42:29;100470.41;;;-1.48;57.56
71948;BME280;63257;55.082;38.772;2022-11-15T01:45:15;100453.09;;;-1.59;57.78
71948;BME280;63257;55.082;38.772;2022-11-15T01:48:00;100465.25;;;-1.47;57.82
71948;BME280;63257;55.082;38.772;2022-11-15T01:55:25;100463.59;;;-1.28;57.04
71948;BME280;63257;55.082;38.772;2022-11-15T02:02:22;100454.09;;;-1.26;56.99
71948;BME280;63257;55.082;38.772;2022-11-15T02:05:07;100463.59;;;-1.17;56.92
71948;BME280;63257;55.082;38.772;2022-11-15T02:07:51;100453.25;;;-1.18;56.72
71948;BME280;63257;55.082;38.772;2022-11-15T02:10:36;100466.19;;;-1.18;57.46
71948;BME280;63257;55.082;38.772;2022-11-15T02:13:28;100463.63;;;-1.12;57.41
71948;BME280;63257;55.082;38.772;2022-11-15T02:27:21;100457.63;;;-0.97;56.81
71948;BME280;63257;55.082;38.772;2022-11-15T02:33:39;100439.50;;;-0.96;56.42
71948;BME280;63257;55.082;38.772;2022-11-15T02:43:22;100458.50;;;-0.88;56.83
71948;BME280;63257;55.082;38.772;2022-11-15T02:54:24;100456.78;;;-0.72;57.08
71948;BME280;63257;55.082;38.772;2022-11-15T02:57:16;100451.63;;;-0.69;56.77
71948;BME280;63257;55.082;38.772;2022-11-15T03:03:22;100437.78;;;-0.68;55.75
71948;BME280;63257;55.082;38.772;2022-11-15T03:24:12;100437.78;;;-0.84;56.21
71948;BME280;63257;55.082;38.772;2022-11-15T03:26:59;100437.78;;;-0.77;55.15
71948;BME280;63257;55.082;38.772;2022-11-15T03:33:58;100450.75;;;-0.58;54.80
71948;BME280;63257;55.082;38.772;2022-11-15T03:36:45;100440.41;;;-0.64;54.72
71948;BME280;63257;55.082;38.772;2022-11-15T03:39:30;100432.59;;;-0.60;54.40
71948;BME280;63257;55.082;38.772;2022-11-15T03:42:31;100447.28;;;-0.54;53.64
71948;BME280;63257;55.082;38.772;2022-11-15T03:45:44;100427.41;;;-0.55;53.73
71948;BME280;63257;55.082;38.772;2022-11-15T03:48:34;100420.53;;;-0.58;53.22
71948;BME280;63257;55.082;38.772;2022-11-15T03:51:21;100423.09;;;-0.50;52.83
71948;BME280;63257;55.082;38.772;2022-11-15T03:54:05;100391.13;;;-0.61;52.86
71948;BME280;63257;55.082;38.772;2022-11-15T03:56:50;100409.25;;;-0.47;52.65
71948;BME280;63257;55.082;38.772;2022-11-15T03:59:34;100421.34;;;-0.39;53.21
71948;BME280;63257;55.082;38.772;2022-11-15T04:02:19;100412.72;;;-0.39;52.70
71948;BME280;63257;55.082;38.772;2022-11-15T04:05:04;100411.00;;;-0.34;52.84
71948;BME280;63257;55.082;38.772;2022-11-15T04:07:48;100416.16;;;-0.25;52.33
71948;BME280;63257;55.082;38.772;2022-11-15T04:10:53;100422.22;;;-0.24;52.29
71948;BME280;63257;55.082;38.772;2022-11-15T04:13:40;100419.63;;;-0.26;52.83
71948;BME280;63257;55.082;38.772;2022-11-15T04:16:24;100404.94;;;-0.21;52.11
71948;BME280;63257;55.082;38.772;2022-11-15T04:19:09;100394.53;;;-0.28;52.01
71948;BME280;63257;55.082;38.772;2022-11-15T04:22:19;100410.94;;;-0.14;51.64
71948;BME280;63257;55.082;38.772;2022-11-15T04:25:22;100424.78;;;-0.12;51.42
71948;BME280;63257;55.082;38.772;2022-11-15T04:28:06;100416.97;;;-0.07;51.89
71948;BME280;63257;55.082;38.772;2022-11-15T04:30:51;100414.38;;;-0.07;51.88
71948;BME280;63257;55.082;38.772;2022-11-15T04:33:36;100418.72;;;-0.08;51.60
71948;BME280;63257;55.082;38.772;2022-11-15T04:36:21;100418.69;;;-0.02;52.12
71948;BME280;63257;55.082;38.772;2022-11-15T04:39:24;100412.66;;;-0.02;50.65
71948;BME280;63257;55.082;38.772;2022-11-15T04:42:08;100410.03;;;0.03;50.95
71948;BME280;63257;55.082;38.772;2022-11-15T04:44:53;100424.75;;;0.10;51.09
71948;BME280;63257;55.082;38.772;2022-11-15T04:48:04;100408.28;;;0.08;49.97
71948;BME280;63257;55.082;38.772;2022-11-15T04:50:48;100402.25;;;0.09;50.81
71948;BME280;63257;55.082;38.772;2022-11-15T04:53:33;100388.41;;;0.04;50.37
71948;BME280;63257;55.082;38.772;2022-11-15T04:56:18;100400.50;;;0.15;50.28
71948;BME280;63257;55.082;38.772;2022-11-15T04:59:03;100410.88;;;0.19;50.17
71948;BME280;63257;55.082;38.772;2022-11-15T05:01:47;100390.16;;;0.00;50.27
71948;BME280;63257;55.082;38.772;2022-11-15T05:04:32;100390.13;;;0.09;50.42
71948;BME280;63257;55.082;38.772;2022-11-15T05:07:17;100384.06;;;0.10;49.95
71948;BME280;63257;55.082;38.772;2022-11-15T05:10:04;100392.66;;;0.28;49.59
71948;BME280;63257;55.082;38.772;2022-11-15T05:12:48;100388.34;;;0.27;49.32
71948;BME280;63257;55.082;38.772;2022-11-15T05:15:34;100380.56;;;0.22;49.98
71948;BME280;63257;55.082;38.772;2022-11-15T05:18:18;100383.13;;;0.28;49.02
71948;BME280;63257;55.082;38.772;2022-11-15T05:21:08;100368.44;;;0.30;48.68
71948;BME280;63257;55.082;38.772;2022-11-15T05:23:52;100386.56;;;0.41;48.85
71948;BME280;63257;55.082;38.772;2022-11-15T05:26:37;100367.53;;;0.31;49.05
71948;BME280;63257;55.082;38.772;2022-11-15T05:29:22;100378.75;;;0.37;48.94
71948;BME280;63257;55.082;38.772;2022-11-15T05:32:08;100372.69;;;0.42;49.46
71948;BME280;63257;55.082;38.772;2022-11-15T05:34:54;100367.56;;;0.27;49.59
71948;BME280;63257;55.082;38.772;2022-11-15T05:37:40;100379.63;;;0.36;50.40
71948;BME280;63257;55.082;38.772;2022-11-15T05:40:25;100371.91;;;0.28;49.60
71948;BME280;63257;55.082;38.772;2022-11-15T05:43:10;100357.19;;;0.19;49.70
71948;BME280;63257;55.082;38.772;2022-11-15T05:45:55;100380.53;;;0.27;49.61
71948;BME280;63257;55.082;38.772;2022-11-15T05:48:44;100374.47;;;0.32;49.76
71948;BME280;63257;55.082;38.772;2022-11-15T05:51:30;100364.09;;;0.29;50.23
71948;BME280;63257;55.082;38.772;2022-11-15T05:54:16;100376.16;;;0.38;49.74
71948;BME280;63257;55.082;38.772;2022-11-15T05:57:00;100382.19;;;0.45;50.02
71948;BME280;63257;55.082;38.772;2022-11-15T05:59:45;100378.75;;;0.40;50.37
71948;BME280;63257;55.082;38.772;2022-11-15T06:02:30;100375.31;;;0.36;50.28
71948;BME280;63257;55.082;38.772;2022-11-15T06:05:40;100376.16;;;0.40;50.51
71948;BME280;63257;55.082;38.772;2022-11-15T06:08:24;100373.56;;;0.41;51.28
71948;BME280;63257;55.082;38.772;2022-11-15T06:11:09;100378.72;;;0.46;51.11
71948;BME280;63257;55.082;38.772;2022-11-15T06:13:53;100376.16;;;0.41;51.07
71948;BME280;63257;55.082;38.772;2022-11-15T06:16:38;100376.97;;;0.46;51.42
71948;BME280;63257;55.082;38.772;2022-11-15T06:19:22;100359.72;;;0.41;51.32
71948;BME280;63257;55.082;38.772;2022-11-15T06:22:07;100362.34;;;0.36;51.33
71948;BME280;63257;55.082;38.772;2022-11-15T06:24:53;100371.84;;;0.39;51.75
71948;BME280;63257;55.082;38.772;2022-11-15T06:27:38;100367.50;;;0.41;51.16
71948;BME280;63257;55.082;38.772;2022-11-15T06:30:23;100369.22;;;0.43;52.15
71948;BME280;63257;55.082;38.772;2022-11-15T06:33:11;100362.28;;;0.48;51.55
71948;BME280;63257;55.082;38.772;2022-11-15T06:35:59;100358.78;;;0.53;51.57
71948;BME280;63257;55.082;38.772;2022-11-15T06:39:08;100360.50;;;0.57;51.44
71948;BME280;63257;55.082;38.772;2022-11-15T06:41:52;100353.56;;;0.56;51.81
71948;BME280;63257;55.082;38.772;2022-11-15T06:44:37;100344.03;;;0.55;51.56
71948;BME280;63257;55.082;38.772;2022-11-15T06:47:22;100344.91;;;0.52;51.63
71948;BME280;63257;55.082;38.772;2022-11-15T06:50:06;100338.06;;;0.42;51.81
71948;BME280;63257;55.082;38.772;2022-11-15T06:52:51;100362.25;;;0.53;51.57
71948;BME280;63257;55.082;38.772;2022-11-15T06:55:35;100352.69;;;0.58;51.24
71948;BME280;63257;55.082;38.772;2022-11-15T06:58:21;100336.25;;;0.59;51.14
71948;BME280;63257;55.082;38.772;2022-11-15T07:01:08;100346.56;;;0.67;50.70
71948;BME280;63257;55.082;38.772;2022-11-15T07:03:52;100348.31;;;0.68;51.90
71948;BME280;63257;55.082;38.772;2022-11-15T07:06:37;100331.94;;;0.54;52.12
71948;BME280;63257;55.082;38.772;2022-11-15T07:09:22;100342.19;;;0.78;48.28
71948;BME280;63257;55.082;38.772;2022-11-15T07:12:06;100334.34;;;0.83;50.55
71948;BME280;63257;55.082;38.772;2022-11-15T07:14:51;100340.31;;;0.94;50.47
71948;BME280;63257;55.082;38.772;2022-11-15T07:17:36;100331.69;;;0.92;50.27
71948;BME280;63257;55.082;38.772;2022-11-15T07:20:20;100334.31;;;0.91;50.07
71948;BME280;63257;55.082;38.772;2022-11-15T07:23:04;100346.34;;;1.01;49.48
71948;BME280;63257;55.082;38.772;2022-11-15T07:29:39;100343.56;;;1.23;48.36
71948;BME280;63257;55.082;38.772;2022-11-15T07:32:25;100322.03;;;1.05;48.24
71948;BME280;63257;55.082;38.772;2022-11-15T07:35:09;100328.03;;;1.13;45.91
71948;BME280;63257;55.082;38.772;2022-11-15T07:37:59;100334.09;;;1.17;46.83
71948;BME280;63257;55.082;38.772;2022-11-15T07:40:44;100331.38;;;1.29;46.90
71948;BME280;63257;55.082;38.772;2022-11-15T07:43:28;100330.59;;;1.20;46.48
71948;BME280;63257;55.082;38.772;2022-11-15T07:46:14;100327.13;;;1.17;46.45
71948;BME280;63257;55.082;38.772;2022-11-15T07:48:58;100327.13;;;1.19;46.18
71948;BME280;63257;55.082;38.772;2022-11-15T07:51:42;100325.38;;;1.23;45.63
71948;BME280;63257;55.082;38.772;2022-11-15T07:54:28;100324.44;;;1.30;46.07
71948;BME280;63257;55.082;38.772;2022-11-15T07:57:12;100315.13;;;1.07;43.92
71948;BME280;63257;55.082;38.772;2022-11-15T07:59:56;100329.00;;;1.00;44.15
71948;BME280;63257;55.082;38.772;2022-11-15T08:02:41;100320.38;;;0.98;44.30
71948;BME280;63257;55.082;38.772;2022-11-15T08:05:26;100319.41;;;1.08;44.41
71948;BME280;63257;55.082;38.772;2022-11-15T08:08:11;100322.03;;;1.07;44.72
71948;BME280;63257;55.082;38.772;2022-11-15T08:10:57;100308.19;;;1.06;44.70
71948;BME280;63257;55.082;38.772;2022-11-15T08:13:42;100304.59;;;1.18;44.47
71948;BME280;63257;55.082;38.772;2022-11-15T08:16:26;100285.53;;;1.17;44.76
71948;BME280;63257;55.082;38.772;2022-11-15T08:19:11;100287.31;;;1.12;44.50
71948;BME280;63257;55.082;38.772;2022-11-15T08:21:55;100289.06;;;1.10;44.79
71948;BME280;63257;55.082;38.772;2022-11-15T08:24:39;100277.03;;;1.03;45.10
71948;BME280;63257;55.082;38.772;2022-11-15T08:27:24;100270.91;;;1.07;44.83
71948;BME280;63257;55.082;38.772;2022-11-15T08:30:09;100272.59;;;1.13;44.79
71948;BME280;63257;55.082;38.772;2022-11-15T08:32:57;100277.88;;;1.02;45.10
71948;BME280;63257;55.082;38.772;2022-11-15T08:35:43;100287.47;;;0.95;45.02
71948;BME280;63257;55.082;38.772;2022-11-15T08:38:28;100287.47;;;0.95;45.89
71948;BME280;63257;55.082;38.772;2022-11-15T08:41:34;100280.56;;;0.93;45.67
71948;BME280;63257;55.082;38.772;2022-11-15T08:44:19;100283.94;;;1.01;45.35
71948;BME280;63257;55.082;38.772;2022-11-15T08:47:03;100274.41;;;1.00;44.71
71948;BME280;63257;55.082;38.772;2022-11-15T08:49:48;100268.31;;;1.04;44.86
71948;BME280;63257;55.082;38.772;2022-11-15T08:52:33;100265.78;;;0.99;45.12
71948;BME280;63257;55.082;38.772;2022-11-15T08:55:17;100255.44;;;0.95;45.63
71948;BME280;63257;55.082;38.772;2022-11-15T08:58:03;100239.84;;;0.95;44.99
71948;BME280;63257;55.082;38.772;2022-11-15T09:00:47;100253.72;;;0.92;45.25
71948;BME280;63257;55.082;38.772;2022-11-15T09:03:32;100232.97;;;0.84;45.61
71948;BME280;63257;55.082;38.772;2022-11-15T09:06:18;100244.38;;;0.68;46.06
71948;BME280;63257;55.082;38.772;2022-11-15T09:09:02;100223.66;;;0.59;46.56
71948;BME280;63257;55.082;38.772;2022-11-15T09:11:47;100246.81;;;0.85;46.29
71948;BME280;63257;55.082;38.772;2022-11-15T09:14:33;100242.44;;;0.95;46.15
71948;BME280;63257;55.082;38.772;2022-11-15T09:17:17;100236.19;;;1.10;46.28
71948;BME280;63257;55.082;38.772;2022-11-15T09:20:02;100225.94;;;0.99;45.82
71948;BME280;63257;55.082;38.772;2022-11-15T09:22:47;100236.28;;;1.02;45.29
71948;BME280;63257;55.082;38.772;2022-11-15T09:25:32;100234.53;;;1.02;45.85
71948;BME280;63257;55.082;38.772;2022-11-15T09:28:16;100236.31;;;0.99;45.62
71948;BME280;63257;55.082;38.772;2022-11-15T09:31:02;100235.34;;;1.09;45.01
71948;BME280;63257;55.082;38.772;2022-11-15T09:33:47;100237.16;;;1.01;45.17
71948;BME280;63257;55.082;38.772;2022-11-15T09:36:31;100236.19;;;1.13;45.22
71948;BME280;63257;55.082;38.772;2022-11-15T09:39:16;100233.66;;;1.04;45.17
71948;BME280;63257;55.082;38.772;2022-11-15T09:45:32;100222.25;;;1.20;45.21
71948;BME280;63257;55.082;38.772;2022-11-15T09:48:49;100213.56;;;1.21;45.46
71948;BME280;63257;55.082;38.772;2022-11-15T09:51:37;100185.09;;;1.10;45.06
71948;BME280;63257;55.082;38.772;2022-11-15T09:56:47;100211.81;;;1.22;44.95
71948;BME280;63257;55.082;38.772;2022-11-15T09:59:27;100200.50;;;1.27;45.03
71948;BME280;63257;55.082;38.772;2022-11-15T10:04:52;100203.81;;;1.42;44.63
71948;BME280;63257;55.082;38.772;2022-11-15T10:10:28;100196.94;;;1.36;45.36
71948;BME280;63257;55.082;38.772;2022-11-15T10:12:55;100199.47;;;1.41;45.12
71948;BME280;63257;55.082;38.772;2022-11-15T10:15:21;100194.19;;;1.50;44.17
71948;BME280;63257;55.082;38.772;2022-11-15T10:20:24;100187.13;;;1.60;44.25
71948;BME280;63257;55.082;38.772;2022-11-15T10:22:54;100164.81;;;1.37;44.27
71948;BME280;63257;55.082;38.772;2022-11-15T10:25:25;100183.97;;;1.31;44.38
71948;BME280;63257;55.082;38.772;2022-11-15T10:28:16;100177.09;;;1.27;44.66
71948;BME280;63257;55.082;38.772;2022-11-15T10:30:47;100172.75;;;1.26;44.35
71948;BME280;63257;55.082;38.772;2022-11-15T10:41:34;100155.44;;;1.27;45.63
71948;BME280;63257;55.082;38.772;2022-11-15T10:47:28;100145.03;;;1.27;45.39
71948;BME280;63257;55.082;38.772;2022-11-15T10:49:58;100151.78;;;1.42;45.60
71948;BME280;63257;55.082;38.772;2022-11-15T10:52:24;100158.56;;;1.53;45.98
71948;BME280;63257;55.082;38.772;2022-11-15T10:54:52;100164.56;;;1.59;45.10
71948;BME280;63257;55.082;38.772;2022-11-15T10:57:22;100162.00;;;1.56;45.64
71948;BME280;63257;55.082;38.772;2022-11-15T10:59:53;100163.88;;;1.43;45.00
71948;BME280;63257;55.082;38.772;2022-11-15T11:02:34;100154.44;;;1.35;45.16
71948;BME280;63257;55.082;38.772;2022-11-15T11:05:04;100157.13;;;1.31;45.49
71948;BME280;63257;55.082;38.772;2022-11-15T11:07:32;100141.44;;;1.35;45.70
71948;BME280;63257;55.082;38.772;2022-11-15T11:10:20;100143.31;;;1.26;45.60
71948;BME280;63257;55.082;38.772;2022-11-15T11:12:47;100136.22;;;1.37;45.59
71948;BME280;63257;55.082;38.772;2022-11-15T11:15:15;100117.28;;;1.26;46.22
71948;BME280;63257;55.082;38.772;2022-11-15T11:18:12;100131.13;;;1.29;46.40
71948;BME280;63257;55.082;38.772;2022-11-15T11:20:45;100127.66;;;1.29;45.81
71948;BME280;63257;55.082;38.772;2022-11-15T11:32:55;100112.94;;;1.28;45.56
71948;BME280;63257;55.082;38.772;2022-11-15T11:38:25;100102.69;;;1.17;46.00
71948;BME280;63257;55.082;38.772;2022-11-15T11:43:57;100101.03;;;1.08;46.55
71948;BME280;63257;55.082;38.772;2022-11-15T11:49:06;100092.28;;;1.14;46.62
71948;BME280;63257;55.082;38.772;2022-11-15T11:51:38;100078.47;;;1.12;45.77
71948;BME280;63257;55.082;38.772;2022-11-15T11:54:14;100091.31;;;1.24;46.35
71948;BME280;63257;55.082;38.772;2022-11-15T11:56:44;100089.53;;;1.26;46.17
71948;BME280;63257;55.082;38.772;2022-11-15T12:05:51;100022.31;;;0.98;46.85
71948;BME280;63257;55.082;38.772;2022-11-15T12:07:54;100075.56;;;1.35;46.83
71948;BME280;63257;55.082;38.772;2022-11-15T12:10:30;100061.63;;;1.41;46.43
71948;BME280;63257;55.082;38.772;2022-11-15T12:13:03;100069.41;;;1.42;46.67
71948;BME280;63257;55.082;38.772;2022-11-15T12:15:41;100078.06;;;1.43;46.71
71948;BME280;63257;55.082;38.772;2022-11-15T12:18:13;100041.06;;;1.21;46.06
71948;BME280;63257;55.082;38.772;2022-11-15T12:21:07;100063.56;;;1.25;46.40
71948;BME280;63257;55.082;38.772;2022-11-15T12:23:43;100070.47;;;1.27;46.88
71948;BME280;63257;55.082;38.772;2022-11-15T12:26:20;100067.88;;;1.26;46.91
71948;BME280;63257;55.082;38.772;2022-11-15T12:29:09;100068.03;;;1.15;47.32
71948;BME280;63257;55.082;38.772;2022-11-15T12:31:42;100075.88;;;1.12;47.10
71948;BME280;63257;55.082;38.772;2022-11-15T12:36:44;100061.22;;;1.05;46.80
71948;BME280;63257;55.082;38.772;2022-11-15T12:39:11;100056.03;;;1.05;47.86
71948;BME280;63257;55.082;38.772;2022-11-15T12:41:40;100052.50;;;1.09;48.80
71948;BME280;63257;55.082;38.772;2022-11-15T12:44:12;100055.16;;;1.04;47.15
71948;BME280;63257;55.082;38.772;2022-11-15T12:49:10;100053.28;;;1.14;47.25
71948;BME280;63257;55.082;38.772;2022-11-15T12:59:54;100039.34;;;1.21;48.18
71948;BME280;63257;55.082;38.772;2022-11-15T13:02:25;100031.56;;;1.18;48.47
71948;BME280;63257;55.082;38.772;2022-11-15T13:04:55;100022.06;;;1.18;47.90
71948;BME280;63257;55.082;38.772;2022-11-15T13:17:44;100011.78;;;1.09;48.78
71948;BME280;63257;55.082;38.772;2022-11-15T13:22:59;100013.88;;;0.79;49.96
71948;BME280;63257;55.082;38.772;2022-11-15T13:33:20;100004.84;;;0.35;54.20
71948;BME280;63257;55.082;38.772;2022-11-15T13:35:48;100008.34;;;0.31;54.30
71948;BME280;63257;55.082;38.772;2022-11-15T13:38:36;99996.22;;;0.35;54.41
71948;BME280;63257;55.082;38.772;2022-11-15T13:41:35;99999.47;;;0.50;55.23
71948;BME280;63257;55.082;38.772;2022-11-15T13:44:03;99981.41;;;0.40;54.40
71948;BME280;63257;55.082;38.772;2022-11-15T13:46:31;99954.75;;;0.27;55.56
71948;BME280;63257;55.082;38.772;2022-11-15T13:49:03;99984.88;;;0.42;55.97
71948;BME280;63257;55.082;38.772;2022-11-15T13:51:36;99991.88;;;0.35;56.77
71948;BME280;63257;55.082;38.772;2022-11-15T13:56:45;99983.34;;;0.24;58.58
71948;BME280;63257;55.082;38.772;2022-11-15T14:02:16;99973.03;;;0.14;59.53
71948;BME280;63257;55.082;38.772;2022-11-15T14:04:51;99985.88;;;0.28;60.67
71948;BME280;63257;55.082;38.772;2022-11-15T14:07:20;99974.69;;;0.22;60.46
71948;BME280;63257;55.082;38.772;2022-11-15T14:09:47;99964.38;;;0.15;61.39
71948;BME280;63257;55.082;38.772;2022-11-15T14:12:29;99942.88;;;0.06;61.13
71948;BME280;63257;55.082;38.772;2022-11-15T14:14:58;99968.63;;;0.23;60.94
71948;BME280;63257;55.082;38.772;2022-11-15T14:19:57;99967.66;;;0.33;62.02
71948;BME280;63257;55.082;38.772;2022-11-15T14:22:28;99949.63;;;0.17;61.50
71948;BME280;63257;55.082;38.772;2022-11-15T14:27:40;99968.69;;;0.18;63.44
71948;BME280;63257;55.082;38.772;2022-11-15T14:30:13;99960.94;;;0.13;63.68
71948;BME280;63257;55.082;38.772;2022-11-15T14:32:49;99951.50;;;0.05;64.79
71948;BME280;63257;55.082;38.772;2022-11-15T14:35:18;99955.84;;;0.06;64.76
71948;BME280;63257;55.082;38.772;2022-11-15T14:37:45;99953.25;;;0.04;65.35
71948;BME280;63257;55.082;38.772;2022-11-15T14:40:18;99960.16;;;0.08;65.90
71948;BME280;63257;55.082;38.772;2022-11-15T14:42:46;99933.44;;;-0.06;65.54
71948;BME280;63257;55.082;38.772;2022-11-15T14:45:16;99944.69;;;-0.03;67.19
71948;BME280;63257;55.082;38.772;2022-11-15T14:47:43;99902.56;;;-0.31;67.58
71948;BME280;63257;55.082;38.772;2022-11-15T14:50:15;99930.91;;;-0.09;67.68
71948;BME280;63257;55.082;38.772;2022-11-15T14:52:42;99942.94;;;-0.02;68.53
71948;BME280;63257;55.082;38.772;2022-11-15T14:55:28;99936.00;;;0.00;68.60
71948;BME280;63257;55.082;38.772;2022-11-15T14:57:55;99935.09;;;0.01;70.31
71948;BME280;63257;55.082;38.772;2022-11-15T15:00:21;99941.91;;;0.13;69.33
71948;BME280;63257;55.082;38.772;2022-11-15T15:02:48;99929.00;;;0.08;70.56
71948;BME280;63257;55.082;38.772;2022-11-15T15:05:20;99914.34;;;0.04;70.44
71948;BME280;63257;55.082;38.772;2022-11-15T15:07:47;99934.97;;;0.13;71.18
71948;BME280;63257;55.082;38.772;2022-11-15T15:10:13;99922.84;;;0.15;70.20
71948;BME280;63257;55.082;38.772;2022-11-15T15:12:40;99918.56;;;0.11;71.06
71948;BME280;63257;55.082;38.772;2022-11-15T15:15:16;99901.22;;;0.13;70.99
71948;BME280;63257;55.082;38.772;2022-11-15T15:17:43;99910.69;;;0.17;71.42
71948;BME280;63257;55.082;38.772;2022-11-15T15:20:09;99897.72;;;0.17;70.68
71948;BME280;63257;55.082;38.772;2022-11-15T15:22:35;99899.53;;;0.09;71.11
71948;BME280;63257;55.082;38.772;2022-11-15T15:25:02;99899.56;;;0.08;71.43
71948;BME280;63257;55.082;38.772;2022-11-15T15:27:30;99890.97;;;0.06;71.62
71948;BME280;63257;55.082;38.772;2022-11-15T15:29:55;99890.97;;;0.03;71.53
71948;BME280;63257;55.082;38.772;2022-11-15T15:32:21;99894.41;;;0.06;71.10
71948;BME280;63257;55.082;38.772;2022-11-15T15:34:47;99892.59;;;0.13;71.36
71948;BME280;63257;55.082;38.772;2022-11-15T15:37:24;99881.41;;;0.08;71.30
71948;BME280;63257;55.082;38.772;2022-11-15T15:39:55;99884.84;;;0.10;71.78
71948;BME280;63257;55.082;38.772;2022-11-15T15:42:22;99883.91;;;0.15;71.29
71948;BME280;63257;55.082;38.772;2022-11-15T15:44:49;99877.88;;;0.13;71.50
71948;BME280;63257;55.082;38.772;2022-11-15T15:47:29;99879.63;;;0.11;71.96
71948;BME280;63257;55.082;38.772;2022-11-15T15:49:55;99865.06;;;-0.01;72.79
71948;BME280;63257;55.082;38.772;2022-11-15T15:52:21;99873.53;;;0.15;72.52
71948;BME280;63257;55.082;38.772;2022-11-15T15:54:47;99860.59;;;0.12;72.29
71948;BME280;63257;55.082;38.772;2022-11-15T15:57:13;99864.06;;;0.11;72.07
71948;BME280;63257;55.082;38.772;2022-11-15T15:59:40;99871.84;;;0.11;72.12
71948;BME280;63257;55.082;38.772;2022-11-15T16:02:08;99856.31;;;0.08;72.46
71948;BME280;63257;55.082;38.772;2022-11-15T16:04:34;99853.81;;;0.01;72.48
71948;BME280;63257;55.082;38.772;2022-11-15T16:07:02;99858.09;;;0.03;72.77
71948;BME280;63257;55.082;38.772;2022-11-15T16:09:31;99848.59;;;0.02;73.08
71948;BME280;63257;55.082;38.772;2022-11-15T16:12:15;99857.09;;;0.13;72.41
71948;BME280;63257;55.082;38.772;2022-11-15T16:14:42;99843.25;;;0.16;72.68
71948;BME280;63257;55.082;38.772;2022-11-15T16:17:17;99842.53;;;0.03;72.52
71948;BME280;63257;55.082;38.772;2022-11-15T16:19:44;99845.91;;;0.10;72.99
71948;BME280;63257;55.082;38.772;2022-11-15T16:22:09;99836.50;;;0.01;73.21
71948;BME280;63257;55.082;38.772;2022-11-15T16:24:35;99832.19;;;0.00;73.31
71948;BME280;63257;55.082;38.772;2022-11-15T16:27:01;99833.16;;;-0.10;73.28
71948;BME280;63257;55.082;38.772;2022-11-15T16:29:27;99831.41;;;-0.07;73.66
71948;BME280;63257;55.082;38.772;2022-11-15T16:31:54;99821.88;;;-0.06;73.59
71948;BME280;63257;55.082;38.772;2022-11-15T16:34:19;99826.22;;;-0.10;73.61
71948;BME280;63257;55.082;38.772;2022-11-15T16:36:45;99822.78;;;-0.10;73.66
71948;BME280;63257;55.082;38.772;2022-11-15T16:39:12;99821.91;;;-0.09;73.41
71948;BME280;63257;55.082;38.772;2022-11-15T16:41:44;99825.34;;;-0.07;74.11
71948;BME280;63257;55.082;38.772;2022-11-15T16:44:13;99821.78;;;0.02;73.41
71948;BME280;63257;55.082;38.772;2022-11-15T16:46:41;99821.81;;;-0.02;73.35
71948;BME280;63257;55.082;38.772;2022-11-15T16:49:14;99807.13;;;-0.03;73.51
71948;BME280;63257;55.082;38.772;2022-11-15T16:51:41;99781.38;;;-0.16;72.75
71948;BME280;63257;55.082;38.772;2022-11-15T16:54:07;99812.22;;;0.05;73.19
71948;BME280;63257;55.082;38.772;2022-11-15T16:56:33;99811.44;;;0.00;72.91
71948;BME280;63257;55.082;38.772;2022-11-15T16:59:00;99813.19;;;-0.04;73.58
71948;BME280;63257;55.082;38.772;2022-11-15T17:01:31;99802.81;;;-0.04;73.62
71948;BME280;63257;55.082;38.772;2022-11-15T17:03:58;99796.03;;;-0.12;73.60
71948;BME280;63257;55.082;38.772;2022-11-15T17:06:25;99814.84;;;0.02;73.17